Latest Weather Observations for South Johnstone

IDQ60801

Issued at 1:32 pm EST Friday 27 March 2015 (issued every 30 minutes, with the page automatically refreshed every 10 minutes)

About weather observations | Map of weather stations | Latest weather observations for QLD | Other Formats
Station Details ID: 032037 Name: SOUTH JOHNSTONE EXP STN Lat: -17.61 Lon: 146.00 Height: 18.3 m
Data from the previous 72 hours. | See also: Recent months at South Johnstone
Date/Time
EST
Temp
°C
App
Temp
°C
Dew
Point
Rel
Hum
%
Delta-T
°C
Wind Press
QNH
hPa
Press
MSL
hPa
Rain
since 9 am
mm
Dir
 
Spd
km/h
Gust
km/h
Spd
kts
Gust
kts
27/01:30pm 29.3 33.2 22.9 68 4.4 SSE 7 13 4 7 1014.4 - 0.4
27/01:00pm 28.1 31.0 21.8 68 4.2 SSE 9 15 5 8 1015.0 - 0.4
27/12:30pm 27.1 30.8 23.9 82 2.2 ESE 11 19 6 10 1015.5 - 0.4
27/12:00pm 28.9 32.7 23.4 72 3.8 E 9 13 5 7 1015.8 1015.7 0.0
27/11:30am 29.0 32.1 22.2 66 4.6 SSE 9 15 5 8 1016.4 - 0.0
27/11:00am 27.9 31.7 22.7 73 3.5 SSW 7 11 4 6 1016.9 - 0.0
27/10:30am 27.6 33.2 23.5 78 2.8 CALM 0 0 0 0 1017.2 - 0.0
27/10:00am 27.0 32.3 24.4 86 1.8 NNE 4 11 2 6 1017.1 - 0.0
27/09:30am 27.3 32.7 23.2 78 2.8 CALM 0 0 0 0 1017.0 - 0.0
27/09:00am 26.8 31.0 23.1 80 2.5 WSW 6 9 3 5 1016.9 1016.8 0.0
27/08:30am 26.1 29.8 22.5 80 2.4 WSW 7 13 4 7 1016.7 - 0.0
27/08:00am 24.0 27.8 22.4 91 1.1 WSW 6 13 3 7 1016.5 - 0.0
27/07:30am 22.8 26.0 21.7 93 0.7 WNW 7 9 4 5 1016.4 - 0.0
27/07:00am 21.7 24.8 21.1 96 0.4 W 6 9 3 5 1016.2 - 0.0
27/06:30am 21.2 24.1 20.7 97 0.3 W 6 7 3 4 1016.1 - 0.0
27/06:00am 21.2 24.9 20.7 97 0.3 WNW 2 7 1 4 1015.8 1015.7 0.0
27/05:30am 21.3 25.4 20.7 96 0.4 CALM 0 0 0 0 1015.6 - 0.0
27/05:00am 21.4 24.4 20.9 97 0.3 WNW 6 7 3 4 1015.4 - 0.0
27/04:30am 21.5 24.9 20.9 96 0.4 WSW 4 7 2 4 1015.3 - 0.0
27/04:00am 21.6 25.8 21.0 96 0.4 CALM 0 0 0 0 1015.1 - 0.0
27/03:30am 21.7 26.0 21.1 96 0.4 CALM 0 6 0 3 1015.1 - 0.0
27/03:00am 21.7 25.2 21.1 96 0.4 W 4 7 2 4 1015.2 1015.1 0.0
27/02:30am 21.8 25.4 21.2 96 0.4 W 4 9 2 5 1015.5 - 0.0
27/02:00am 22.0 25.0 21.2 95 0.5 W 7 11 4 6 1015.7 - 0.0
27/01:30am 22.1 25.8 21.5 96 0.4 W 4 11 2 6 1015.9 - 0.0
27/01:00am 22.2 25.3 21.4 95 0.5 W 7 11 4 6 1016.2 - 0.0
27/12:30am 22.3 25.2 21.7 96 0.4 W 9 13 5 7 1016.6 - 0.0
27/12:00am 22.6 25.9 21.8 95 0.5 W 7 11 4 6 1016.8 1016.7 0.0
 
Date/Time
EST
Temp
°C
App
Temp
°C
Dew
Point
Rel
Hum
%
Delta-T
°C
Wind Press
QNH
hPa
Press
MSL
hPa
Rain
since 9 am
mm
Dir
 
Spd
km/h
Gust
km/h
Spd
kts
Gust
kts
26/11:30pm 22.9 26.9 22.0 95 0.6 W 4 7 2 4 1016.8 - 0.0
26/11:00pm 23.1 27.1 22.0 93 0.7 W 4 9 2 5 1016.8 - 0.0
26/10:30pm 23.4 27.2 22.4 94 0.7 W 6 11 3 6 1016.7 - 0.0
26/10:00pm 23.6 27.4 22.4 93 0.8 W 6 9 3 5 1016.7 - 0.0
26/09:30pm 23.7 28.0 22.7 94 0.7 WSW 4 9 2 5 1016.4 - 0.0
26/09:00pm 23.8 28.5 22.6 93 0.8 W 2 9 1 5 1016.4 1016.3 0.0
26/08:30pm 24.2 28.9 22.7 91 1.0 SW 2 7 1 4 1016.1 - 0.0
26/08:00pm 24.7 29.4 22.6 88 1.4 SW 2 7 1 4 1015.9 - 0.0
26/07:30pm 25.7 30.2 23.0 85 1.8 S 4 7 2 4 1015.6 - 0.0
26/07:00pm 26.3 29.9 22.1 77 2.8 S 6 9 3 5 1015.3 - 0.0
26/06:30pm 26.0 29.6 22.4 80 2.4 SE 7 11 4 6 1015.0 - 0.0
26/06:00pm 27.3 30.8 22.1 73 3.5 SSE 7 9 4 5 1014.7 1014.6 0.0
26/05:30pm 28.4 30.8 21.5 66 4.6 SE 11 19 6 10 1014.4 - 0.0
26/05:00pm 29.0 31.0 21.5 64 5.0 SSE 13 20 7 11 1014.2 - 0.0
26/04:30pm 29.5 31.3 21.1 60 5.6 SE 13 20 7 11 1013.9 - 0.0
26/04:00pm 30.1 32.1 21.5 60 5.8 SE 13 20 7 11 1013.7 - 0.0
26/03:30pm 30.2 31.2 20.2 55 6.6 SE 15 20 8 11 1013.6 - 0.0
26/03:00pm 30.7 32.0 19.2 50 7.5 SE 11 19 6 10 1013.4 1013.3 0.0
26/02:30pm 31.0 32.5 20.5 53 7.0 ESE 13 19 7 10 1013.7 - 0.0
26/02:00pm 30.8 32.4 19.9 52 7.2 ESE 11 17 6 9 1014.0 - 0.0
26/01:30pm 30.8 31.9 19.7 51 7.3 SE 13 24 7 13 1014.4 - 0.0
26/01:00pm 31.2 32.3 19.6 50 7.6 ESE 13 22 7 12 1014.8 - 0.0
26/12:30pm 31.0 32.6 20.8 54 6.8 ESE 13 22 7 12 1015.1 - 0.0
26/12:00pm 31.2 34.2 21.2 55 6.7 SSE 7 13 4 7 1015.5 1015.4 0.0
26/11:30am 31.0 33.5 21.0 55 6.7 SE 9 15 5 8 1016.1 - 0.0
26/11:00am 30.2 33.3 21.1 58 6.1 S 6 11 3 6 1016.4 - 0.0
26/10:30am 29.6 32.0 20.9 59 5.8 SE 9 15 5 8 1016.5 - 0.0
26/10:00am 29.1 32.4 21.8 64 4.9 SSE 7 9 4 5 1016.8 - 0.0
26/09:30am 28.9 32.6 22.6 69 4.3 SE 7 11 4 6 1016.9 - 0.0
26/09:00am 27.6 33.1 24.1 81 2.4 W 2 7 1 4 1016.7 1016.6 0.0
26/08:30am 25.8 30.7 23.1 85 1.8 S 2 7 1 4 1016.6 - 0.0
26/08:00am 24.3 28.3 22.7 91 1.1 WNW 6 9 3 5 1016.3 - 0.0
26/07:30am 22.3 26.5 21.7 96 0.4 W 2 6 1 3 1016.0 - 0.0
26/07:00am 21.6 25.5 21.1 97 0.3 W 2 9 1 5 1015.8 - 0.0
26/06:30am 21.6 25.9 21.1 97 0.3 CALM 0 0 0 0 1015.5 - 0.0
26/06:00am 21.6 25.9 21.1 97 0.3 CALM 0 6 0 3 1015.4 1015.3 0.0
26/05:30am 21.6 24.6 21.3 98 0.2 W 7 11 4 6 1015.3 - 0.0
26/05:00am 21.8 25.8 21.3 97 0.3 W 2 6 1 3 1015.1 - 0.0
26/04:30am 21.9 26.3 21.4 97 0.3 CALM 0 0 0 0 1014.8 - 0.0
26/04:00am 22.3 26.9 21.8 97 0.3 CALM 0 6 0 3 1014.7 - 0.0
26/03:30am 22.1 26.7 21.8 98 0.2 CALM 0 0 0 0 1014.7 - 0.0
26/03:00am 22.2 25.6 21.7 97 0.3 WNW 6 7 3 4 1014.7 1014.6 0.0
26/02:30am 22.4 25.9 21.8 96 0.4 W 6 11 3 6 1015.1 - 0.0
26/02:00am 22.5 26.5 22.0 97 0.3 W 4 11 2 6 1015.2 - 0.0
26/01:30am 22.7 27.5 22.2 97 0.3 CALM 0 0 0 0 1015.3 - 0.0
26/01:00am 22.9 27.0 22.3 96 0.4 W 4 7 2 4 1015.5 - 0.0
26/12:30am 23.3 28.5 22.9 98 0.3 CALM 0 0 0 0 1015.7 - 0.0
26/12:00am 23.6 27.7 22.9 96 0.5 W 6 7 3 4 1015.9 1015.8 0.0
 
Date/Time
EST
Temp
°C
App
Temp
°C
Dew
Point
Rel
Hum
%
Delta-T
°C
Wind Press
QNH
hPa
Press
MSL
hPa
Rain
since 9 am
mm
Dir
 
Spd
km/h
Gust
km/h
Spd
kts
Gust
kts
25/11:30pm 23.7 29.0 23.0 96 0.5 CALM 0 2 0 1 1016.1 - 0.0
25/11:00pm 24.2 28.8 23.2 94 0.7 WSW 4 7 2 4 1016.1 - 0.0
25/10:30pm 24.7 29.8 23.4 92 0.9 WSW 2 6 1 3 1016.0 - 0.0
25/10:00pm 25.2 30.9 23.7 91 1.0 CALM 0 0 0 0 1016.1 - 0.0
25/09:30pm 25.7 30.1 23.5 88 1.5 WSW 6 9 3 5 1016.0 - 0.0
25/09:00pm 26.0 31.7 23.7 87 1.6 CALM 0 6 0 3 1015.8 1015.7 0.0
25/08:30pm 26.0 31.8 24.0 89 1.4 CALM 0 0 0 0 1015.4 - 0.0
25/08:00pm 26.4 32.0 23.5 84 2.0 CALM 0 0 0 0 1015.0 - 0.0
25/07:30pm 26.4 32.0 23.6 84 1.9 CALM 0 0 0 0 1014.8 - 0.0
25/07:00pm 26.4 31.8 23.3 83 2.1 CALM 0 0 0 0 1014.6 - 0.0
25/06:30pm 26.9 31.9 23.2 80 2.5 E 2 7 1 4 1014.2 - 0.0
25/06:00pm 27.6 31.6 23.1 76 3.1 E 7 11 4 6 1013.8 1013.7 0.0
25/05:30pm 28.4 32.0 23.0 72 3.7 E 9 13 5 7 1013.3 - 0.0
25/05:00pm 29.0 32.1 22.8 69 4.2 ENE 11 17 6 9 1013.0 - 0.0
25/04:30pm 29.5 32.5 22.6 66 4.7 E 11 17 6 9 1012.8 - 0.0
25/04:00pm 30.3 33.6 22.5 63 5.3 E 9 19 5 10 1012.7 - 0.0
25/03:30pm 30.6 33.5 22.4 61 5.6 E 11 22 6 12 1012.6 - 0.0
25/03:00pm 30.7 33.7 22.0 59 5.9 ESE 9 19 5 10 1012.8 1012.7 0.0
25/02:30pm 30.7 33.5 22.3 61 5.7 E 11 17 6 9 1012.9 - 0.0
25/02:00pm 30.8 33.5 22.1 59 5.9 E 11 17 6 9 1013.2 - 0.0
25/01:30pm 30.6 32.5 22.0 60 5.8 E 15 22 8 12 1013.5 - 0.0
25/01:00pm 30.9 34.6 23.2 63 5.3 ESE 9 17 5 9 1013.8 - 0.0
25/12:30pm 31.3 34.0 21.3 55 6.7 ENE 9 13 5 7 1014.2 - 0.0
25/12:00pm 30.8 34.5 21.4 57 6.3 E 4 9 2 5 1014.6 1014.5 0.0
25/11:30am 31.1 34.7 21.3 56 6.6 SE 4 11 2 6 1015.0 - 0.0
25/11:00am 30.4 35.2 22.1 61 5.6 CALM 0 6 0 3 1015.5 - 0.0
25/10:30am 30.3 34.6 22.0 61 5.6 SW 2 7 1 4 1015.9 - 0.0
25/10:00am 29.7 33.6 21.8 62 5.3 W 4 13 2 7 1016.1 - 0.0
25/09:30am 28.5 32.1 22.4 69 4.1 SSW 7 11 4 6 1016.3 - 0.0
25/09:00am 27.2 32.2 23.2 79 2.7 SW 2 9 1 5 1016.4 1016.3 0.0
25/08:30am 25.8 31.2 23.3 86 1.7 CALM 0 0 0 0 1016.3 - 0.0
25/08:00am 24.0 29.0 22.5 91 1.0 CALM 0 4 0 2 1016.0 - 0.0
25/07:30am 22.7 27.2 21.5 93 0.8 CALM 0 6 0 3 1015.7 - 0.0
25/07:00am 21.7 25.6 21.1 96 0.4 W 2 7 1 4 1015.3 - 0.0
25/06:30am 21.0 23.6 20.5 97 0.3 WNW 7 9 4 5 1015.1 - 0.0
25/06:00am 21.1 24.0 20.6 97 0.3 W 6 7 3 4 1014.8 1014.7 0.0
25/05:30am 21.2 25.3 20.7 97 0.3 CALM 0 6 0 3 1014.7 - 0.0
25/05:00am 21.2 25.3 20.7 97 0.3 CALM 0 4 0 2 1014.4 - 0.0
25/04:30am 21.4 25.6 20.9 97 0.3 CALM 0 2 0 1 1014.2 - 0.0
25/04:00am 21.5 25.7 21.0 97 0.3 CALM 0 0 0 0 1014.1 - 0.0
25/03:30am 21.6 25.1 21.1 97 0.3 WNW 4 7 2 4 1014.0 - 0.0
25/03:00am 21.7 25.3 21.2 97 0.3 WNW 4 7 2 4 1014.1 1014.0 0.0
25/02:30am 21.9 25.9 21.4 97 0.3 E 2 9 1 5 1014.3 - 0.0
25/02:00am 22.1 26.6 21.5 96 0.4 CALM 0 2 0 1 1014.3 - 0.0
25/01:30am 22.3 25.7 21.7 96 0.4 WNW 6 9 3 5 1014.6 - 0.0
25/01:00am 22.4 26.6 21.8 96 0.4 W 2 7 1 4 1014.7 - 0.0
25/12:30am 22.5 26.0 21.9 96 0.4 WNW 6 7 3 4 1014.9 - 0.0
25/12:00am 22.4 26.3 21.9 97 0.3 WNW 4 7 2 4 1015.1 1015.0 0.0
 
Date/Time
EST
Temp
°C
App
Temp
°C
Dew
Point
Rel
Hum
%
Delta-T
°C
Wind Press
QNH
hPa
Press
MSL
hPa
Rain
since 9 am
mm
Dir
 
Spd
km/h
Gust
km/h
Spd
kts
Gust
kts
24/11:30pm 22.7 26.3 22.1 96 0.4 W 6 9 3 5 1015.3 - 0.0
24/11:00pm 22.9 26.5 22.3 96 0.4 WSW 7 11 4 6 1015.3 - 0.0
24/10:30pm 23.1 28.1 22.5 96 0.4 CALM 0 6 0 3 1015.4 - 0.0
24/10:00pm 23.3 27.3 22.7 96 0.4 WNW 6 7 3 4 1015.3 - 0.0
24/09:30pm 23.6 27.6 22.7 95 0.6 W 6 9 3 5 1015.3 - 0.0
24/09:00pm 23.9 27.8 22.9 94 0.7 WSW 7 11 4 6 1015.1 1015.0 0.0
24/08:30pm 24.4 29.6 22.9 91 1.0 CALM 0 0 0 0 1014.7 - 0.0
24/08:00pm 24.4 29.8 23.2 93 0.8 CALM 0 0 0 0 1014.4 - 0.0
24/07:30pm 25.1 30.5 23.2 89 1.3 CALM 0 0 0 0 1014.1 - 0.0
24/07:00pm 25.7 31.0 23.0 85 1.8 CALM 0 0 0 0 1013.8 - 0.0
24/06:30pm 26.6 31.5 23.1 81 2.4 ESE 2 6 1 3 1013.6 - 0.0
24/06:00pm 27.7 31.5 22.7 74 3.4 E 7 11 4 6 1013.4 1013.3 0.0
24/05:30pm 28.0 31.7 22.5 72 3.7 E 7 13 4 7 1013.0 - 0.0
24/05:00pm 29.1 32.6 22.8 69 4.3 ESE 9 15 5 8 1012.9 - 0.0
24/04:30pm 29.3 32.4 22.9 68 4.4 E 11 17 6 9 1012.8 - 0.0
24/04:00pm 29.6 32.5 22.4 65 4.9 ENE 11 17 6 9 1012.6 - 0.0
24/03:30pm 29.3 31.8 21.7 63 5.1 E 11 19 6 10 1012.5 - 0.0
24/03:00pm 29.9 32.5 22.6 65 5.0 E 13 17 7 9 1012.6 1012.5 0.0
24/02:30pm 30.5 33.1 22.6 62 5.4 E 13 20 7 11 1012.9 - 0.0
24/02:00pm 29.8 32.3 22.4 64 5.0 ENE 13 19 7 10 1013.2 - 0.0

Other Formats:

Comma delimited format used in spreadsheet applications
http://www.bom.gov.au/fwo/IDQ60801/IDQ60801.95292.axf

JavaScript Object Notation format (JSON) in row-major order
http://www.bom.gov.au/fwo/IDQ60801/IDQ60801.95292.json